sensor_id;sensor_type;location;lat;lon;timestamp;pressure;altitude;pressure_sealevel;temperature;humidity
42621;BME280;28252;53.336;-6.298;2023-02-14T00:01:44;102061.28;;;22.90;73.79
42621;BME280;28252;53.336;-6.298;2023-02-14T00:02:20;102065.88;;;22.89;74.31
42621;BME280;28252;53.336;-6.298;2023-02-14T00:02:58;102056.03;;;22.88;74.32
42621;BME280;28252;53.336;-6.298;2023-02-14T00:03:35;102056.03;;;22.88;73.81
42621;BME280;28252;53.336;-6.298;2023-02-14T00:04:11;102057.88;;;22.88;73.61
42621;BME280;28252;53.336;-6.298;2023-02-14T00:04:45;102056.19;;;22.87;73.86
42621;BME280;28252;53.336;-6.298;2023-02-14T00:05:18;102067.06;;;22.87;74.38
42621;BME280;28252;53.336;-6.298;2023-02-14T00:05:51;102062.47;;;22.87;73.94
42621;BME280;28252;53.336;-6.298;2023-02-14T00:06:24;102067.22;;;22.85;73.96
42621;BME280;28252;53.336;-6.298;2023-02-14T00:07:00;102064.50;;;22.85;74.42
42621;BME280;28252;53.336;-6.298;2023-02-14T00:07:33;102064.50;;;22.85;73.84
42621;BME280;28252;53.336;-6.298;2023-02-14T00:08:11;102065.50;;;22.84;74.39
42621;BME280;28252;53.336;-6.298;2023-02-14T00:08:44;102068.22;;;22.84;74.53
42621;BME280;28252;53.336;-6.298;2023-02-14T00:09:17;102066.34;;;22.85;73.94
42621;BME280;28252;53.336;-6.298;2023-02-14T00:09:51;102061.09;;;22.83;74.30
42621;BME280;28252;53.336;-6.298;2023-02-14T00:10:29;102059.38;;;22.82;74.33
42621;BME280;28252;53.336;-6.298;2023-02-14T00:11:00;102059.38;;;22.82;74.21
42621;BME280;28252;53.336;-6.298;2023-02-14T00:11:33;102056.66;;;22.82;74.42
42621;BME280;28252;53.336;-6.298;2023-02-14T00:12:13;102058.53;;;22.82;74.69
42621;BME280;28252;53.336;-6.298;2023-02-14T00:12:46;102062.22;;;22.81;75.01
42621;BME280;28252;53.336;-6.298;2023-02-14T00:13:22;102061.38;;;22.80;74.58
42621;BME280;28252;53.336;-6.298;2023-02-14T00:13:57;102073.09;;;22.81;74.35
42621;BME280;28252;53.336;-6.298;2023-02-14T00:14:51;102070.53;;;22.79;74.54
42621;BME280;28252;53.336;-6.298;2023-02-14T00:15:43;102075.97;;;22.79;74.46
42621;BME280;28252;53.336;-6.298;2023-02-14T00:16:21;102067.97;;;22.78;74.85
42621;BME280;28252;53.336;-6.298;2023-02-14T00:16:57;102069.84;;;22.77;74.48
42621;BME280;28252;53.336;-6.298;2023-02-14T00:17:32;102067.13;;;22.77;74.96
42621;BME280;28252;53.336;-6.298;2023-02-14T00:18:05;102062.69;;;22.76;74.85
42621;BME280;28252;53.336;-6.298;2023-02-14T00:18:36;102057.41;;;22.74;75.02
42621;BME280;28252;53.336;-6.298;2023-02-14T00:19:26;102051.13;;;22.74;75.09
42621;BME280;28252;53.336;-6.298;2023-02-14T00:20:03;102051.97;;;22.74;74.85
42621;BME280;28252;53.336;-6.298;2023-02-14T00:20:34;102051.13;;;22.74;75.04
42621;BME280;28252;53.336;-6.298;2023-02-14T00:21:09;102051.13;;;22.74;75.36
42621;BME280;28252;53.336;-6.298;2023-02-14T00:21:42;102054.00;;;22.72;75.63
42621;BME280;28252;53.336;-6.298;2023-02-14T00:22:16;102045.00;;;22.72;75.09
42621;BME280;28252;53.336;-6.298;2023-02-14T00:24:24;102046.00;;;22.71;74.99
42621;BME280;28252;53.336;-6.298;2023-02-14T00:24:58;102048.88;;;22.69;75.29
42621;BME280;28252;53.336;-6.298;2023-02-14T00:25:33;102048.03;;;22.69;75.21
42621;BME280;28252;53.336;-6.298;2023-02-14T00:26:11;102046.31;;;22.68;75.68
42621;BME280;28252;53.336;-6.298;2023-02-14T00:28:04;102033.75;;;22.67;75.44
42621;BME280;28252;53.336;-6.298;2023-02-14T00:28:35;102032.91;;;22.66;76.04
42621;BME280;28252;53.336;-6.298;2023-02-14T00:29:10;102031.03;;;22.67;75.97
42621;BME280;28252;53.336;-6.298;2023-02-14T00:29:41;102037.47;;;22.66;75.88
42621;BME280;28252;53.336;-6.298;2023-02-14T00:31:13;102039.47;;;22.64;75.58
42621;BME280;28252;53.336;-6.298;2023-02-14T00:31:48;102044.22;;;22.62;76.13
42621;BME280;28252;53.336;-6.298;2023-02-14T00:32:22;102046.09;;;22.61;76.21
42621;BME280;28252;53.336;-6.298;2023-02-14T00:33:01;102039.78;;;22.61;76.45
42621;BME280;28252;53.336;-6.298;2023-02-14T00:33:34;102038.94;;;22.60;76.01
42621;BME280;28252;53.336;-6.298;2023-02-14T00:34:07;102037.94;;;22.61;76.44
42621;BME280;28252;53.336;-6.298;2023-02-14T00:34:43;102029.94;;;22.60;76.15
42621;BME280;28252;53.336;-6.298;2023-02-14T00:35:18;102033.66;;;22.59;76.83
42621;BME280;28252;53.336;-6.298;2023-02-14T00:35:52;102030.94;;;22.59;76.61
42621;BME280;28252;53.336;-6.298;2023-02-14T00:36:25;102037.22;;;22.59;76.38
42621;BME280;28252;53.336;-6.298;2023-02-14T00:37:01;102030.94;;;22.59;76.41
42621;BME280;28252;53.336;-6.298;2023-02-14T00:37:34;102039.25;;;22.57;76.84
42621;BME280;28252;53.336;-6.298;2023-02-14T00:38:07;102040.09;;;22.57;76.05
42621;BME280;28252;53.336;-6.298;2023-02-14T00:38:43;102042.81;;;22.57;75.80
42621;BME280;28252;53.336;-6.298;2023-02-14T00:39:21;102039.25;;;22.57;76.66
42621;BME280;28252;53.336;-6.298;2023-02-14T00:39:56;102043.84;;;22.56;76.46
42621;BME280;28252;53.336;-6.298;2023-02-14T00:40:28;102036.69;;;22.55;76.42
42621;BME280;28252;53.336;-6.298;2023-02-14T00:41:07;102043.13;;;22.54;76.36
42621;BME280;28252;53.336;-6.298;2023-02-14T00:41:48;102046.69;;;22.55;76.60
42621;BME280;28252;53.336;-6.298;2023-02-14T00:42:22;102050.41;;;22.54;76.41
42621;BME280;28252;53.336;-6.298;2023-02-14T00:42:53;102042.41;;;22.52;76.53
42621;BME280;28252;53.336;-6.298;2023-02-14T00:43:28;102049.56;;;22.53;76.76
42621;BME280;28252;53.336;-6.298;2023-02-14T00:44:02;102044.28;;;22.52;76.66
42621;BME280;28252;53.336;-6.298;2023-02-14T00:44:41;102044.28;;;22.52;76.90
42621;BME280;28252;53.336;-6.298;2023-02-14T00:45:13;102036.28;;;22.50;76.77
42621;BME280;28252;53.336;-6.298;2023-02-14T00:45:50;102038.16;;;22.50;76.61
42621;BME280;28252;53.336;-6.298;2023-02-14T00:46:28;102031.88;;;22.49;76.45
42621;BME280;28252;53.336;-6.298;2023-02-14T00:47:03;102035.44;;;22.50;76.66
42621;BME280;28252;53.336;-6.298;2023-02-14T00:47:36;102038.31;;;22.48;76.61
42621;BME280;28252;53.336;-6.298;2023-02-14T00:48:07;102033.88;;;22.47;76.88
42621;BME280;28252;53.336;-6.298;2023-02-14T00:48:38;102024.03;;;22.46;76.81
42621;BME280;28252;53.336;-6.298;2023-02-14T00:49:12;102026.75;;;22.46;76.82
42621;BME280;28252;53.336;-6.298;2023-02-14T00:49:43;102026.75;;;22.46;76.49
42621;BME280;28252;53.336;-6.298;2023-02-14T00:50:16;102030.47;;;22.45;76.32
42621;BME280;28252;53.336;-6.298;2023-02-14T00:50:51;102030.47;;;22.45;76.86
42621;BME280;28252;53.336;-6.298;2023-02-14T00:52:29;102021.63;;;22.43;76.80
42621;BME280;28252;53.336;-6.298;2023-02-14T00:53:01;102025.34;;;22.42;76.74
42621;BME280;28252;53.336;-6.298;2023-02-14T00:53:35;102028.03;;;22.42;77.05
42621;BME280;28252;53.336;-6.298;2023-02-14T00:54:08;102025.66;;;22.39;77.08
42621;BME280;28252;53.336;-6.298;2023-02-14T00:54:42;102027.34;;;22.40;76.79
42621;BME280;28252;53.336;-6.298;2023-02-14T00:55:13;102032.94;;;22.38;77.07
42621;BME280;28252;53.336;-6.298;2023-02-14T00:55:44;102031.25;;;22.37;76.75
42621;BME280;28252;53.336;-6.298;2023-02-14T00:56:19;102025.81;;;22.37;76.69
42621;BME280;28252;53.336;-6.298;2023-02-14T00:56:52;102029.38;;;22.38;77.03
42621;BME280;28252;53.336;-6.298;2023-02-14T00:57:26;102022.22;;;22.37;76.88
42621;BME280;28252;53.336;-6.298;2023-02-14T00:58:01;102025.97;;;22.36;77.58
42621;BME280;28252;53.336;-6.298;2023-02-14T00:58:36;102026.97;;;22.35;77.50
42621;BME280;28252;53.336;-6.298;2023-02-14T00:59:13;102030.69;;;22.34;77.50
42621;BME280;28252;53.336;-6.298;2023-02-14T00:59:47;102027.09;;;22.33;76.87
42621;BME280;28252;53.336;-6.298;2023-02-14T01:00:20;102026.25;;;22.33;77.13
42621;BME280;28252;53.336;-6.298;2023-02-14T01:00:53;102031.69;;;22.33;77.51
42621;BME280;28252;53.336;-6.298;2023-02-14T01:01:30;102022.84;;;22.31;77.51
42621;BME280;28252;53.336;-6.298;2023-02-14T01:02:03;102022.84;;;22.31;77.34
42621;BME280;28252;53.336;-6.298;2023-02-14T01:02:36;102022.16;;;22.29;77.84
42621;BME280;28252;53.336;-6.298;2023-02-14T01:03:10;102022.84;;;22.31;77.30
42621;BME280;28252;53.336;-6.298;2023-02-14T01:03:41;102025.72;;;22.29;77.21
42621;BME280;28252;53.336;-6.298;2023-02-14T01:04:16;102030.28;;;22.29;77.28
42621;BME280;28252;53.336;-6.298;2023-02-14T01:04:50;102029.41;;;22.28;77.45
42621;BME280;28252;53.336;-6.298;2023-02-14T01:05:25;102035.72;;;22.29;77.13
42621;BME280;28252;53.336;-6.298;2023-02-14T01:05:58;102028.56;;;22.28;77.59
42621;BME280;28252;53.336;-6.298;2023-02-14T01:06:29;102034.00;;;22.28;77.42
42621;BME280;28252;53.336;-6.298;2023-02-14T01:07:05;102034.97;;;22.27;77.46
42621;BME280;28252;53.336;-6.298;2023-02-14T01:07:39;102030.56;;;22.26;77.41
42621;BME280;28252;53.336;-6.298;2023-02-14T01:08:16;102030.56;;;22.26;77.32
42621;BME280;28252;53.336;-6.298;2023-02-14T01:08:50;102030.56;;;22.26;77.36
42621;BME280;28252;53.336;-6.298;2023-02-14T01:09:25;102026.97;;;22.25;77.77
42621;BME280;28252;53.336;-6.298;2023-02-14T01:10:04;102034.41;;;22.23;77.72
42621;BME280;28252;53.336;-6.298;2023-02-14T01:10:40;102025.44;;;22.23;77.80
42621;BME280;28252;53.336;-6.298;2023-02-14T01:11:15;102024.59;;;22.22;77.55
42621;BME280;28252;53.336;-6.298;2023-02-14T01:11:48;102024.59;;;22.22;77.97
42621;BME280;28252;53.336;-6.298;2023-02-14T01:12:20;102023.72;;;22.22;78.21
42621;BME280;28252;53.336;-6.298;2023-02-14T01:12:52;102032.88;;;22.20;77.84
42621;BME280;28252;53.336;-6.298;2023-02-14T01:13:23;102025.72;;;22.19;78.21
42621;BME280;28252;53.336;-6.298;2023-02-14T01:13:57;102028.44;;;22.19;77.71
42621;BME280;28252;53.336;-6.298;2023-02-14T01:14:30;102027.59;;;22.19;77.85
42621;BME280;28252;53.336;-6.298;2023-02-14T01:15:04;102024.88;;;22.19;78.19
42621;BME280;28252;53.336;-6.298;2023-02-14T01:15:43;102024.00;;;22.18;78.14
42621;BME280;28252;53.336;-6.298;2023-02-14T01:16:17;102025.03;;;22.17;78.08
42621;BME280;28252;53.336;-6.298;2023-02-14T01:16:53;102025.03;;;22.17;78.40
42621;BME280;28252;53.336;-6.298;2023-02-14T01:17:24;102025.03;;;22.17;78.41
42621;BME280;28252;53.336;-6.298;2023-02-14T01:17:59;102027.91;;;22.16;78.18
42621;BME280;28252;53.336;-6.298;2023-02-14T01:18:31;102023.31;;;22.16;78.49
42621;BME280;28252;53.336;-6.298;2023-02-14T01:19:02;102016.19;;;22.15;78.08
42621;BME280;28252;53.336;-6.298;2023-02-14T01:19:35;102017.19;;;22.14;79.30
42621;BME280;28252;53.336;-6.298;2023-02-14T01:20:08;102009.19;;;22.13;79.43
42621;BME280;28252;53.336;-6.298;2023-02-14T01:20:41;102018.34;;;22.12;79.07
42621;BME280;28252;53.336;-6.298;2023-02-14T01:21:47;102006.63;;;22.11;79.26
42621;BME280;28252;53.336;-6.298;2023-02-14T01:22:20;102016.63;;;22.11;78.72
42621;BME280;28252;53.336;-6.298;2023-02-14T01:22:56;102015.78;;;22.10;79.35
42621;BME280;28252;53.336;-6.298;2023-02-14T01:23:29;102019.50;;;22.09;80.69
42621;BME280;28252;53.336;-6.298;2023-02-14T01:24:07;102016.09;;;22.07;80.17
42621;BME280;28252;53.336;-6.298;2023-02-14T01:24:41;102013.53;;;22.06;80.53
42621;BME280;28252;53.336;-6.298;2023-02-14T01:25:12;102006.22;;;22.06;79.45
42621;BME280;28252;53.336;-6.298;2023-02-14T01:25:48;102008.94;;;22.06;79.62
42621;BME280;28252;53.336;-6.298;2023-02-14T01:26:24;102009.97;;;22.05;79.96
42621;BME280;28252;53.336;-6.298;2023-02-14T01:26:55;102009.97;;;22.05;80.55
42621;BME280;28252;53.336;-6.298;2023-02-14T01:27:31;102007.25;;;22.05;80.31
42621;BME280;28252;53.336;-6.298;2023-02-14T01:28:03;102009.97;;;22.05;79.86
42621;BME280;28252;53.336;-6.298;2023-02-14T01:28:43;101995.53;;;22.05;80.48
42621;BME280;28252;53.336;-6.298;2023-02-14T01:29:17;102004.53;;;22.05;79.95
42621;BME280;28252;53.336;-6.298;2023-02-14T01:29:50;102000.09;;;22.04;79.95
42621;BME280;28252;53.336;-6.298;2023-02-14T01:30:25;101999.13;;;22.05;79.85
42621;BME280;28252;53.336;-6.298;2023-02-14T01:32:09;102007.41;;;22.04;80.33
42621;BME280;28252;53.336;-6.298;2023-02-14T01:32:43;102002.13;;;22.02;80.35
42621;BME280;28252;53.336;-6.298;2023-02-14T01:33:18;102000.41;;;22.01;79.88
42621;BME280;28252;53.336;-6.298;2023-02-14T01:33:52;101998.72;;;22.00;80.42
42621;BME280;28252;53.336;-6.298;2023-02-14T01:34:27;102004.13;;;22.00;79.91
42621;BME280;28252;53.336;-6.298;2023-02-14T01:34:58;101998.72;;;22.00;80.02
42621;BME280;28252;53.336;-6.298;2023-02-14T01:35:37;101997.97;;;21.98;81.58
42621;BME280;28252;53.336;-6.298;2023-02-14T01:37:11;101999.84;;;21.97;80.57
42621;BME280;28252;53.336;-6.298;2023-02-14T01:37:47;101996.28;;;21.97;80.10
42621;BME280;28252;53.336;-6.298;2023-02-14T01:38:21;101996.28;;;21.97;80.57
42621;BME280;28252;53.336;-6.298;2023-02-14T01:38:58;101997.28;;;21.96;80.15
42621;BME280;28252;53.336;-6.298;2023-02-14T01:39:32;102001.03;;;21.95;80.72
42621;BME280;28252;53.336;-6.298;2023-02-14T01:40:08;102001.03;;;21.95;80.83
42621;BME280;28252;53.336;-6.298;2023-02-14T01:40:42;102000.28;;;21.93;81.15
42621;BME280;28252;53.336;-6.298;2023-02-14T01:41:16;102000.28;;;21.93;80.68
42621;BME280;28252;53.336;-6.298;2023-02-14T01:41:49;101999.44;;;21.92;81.12
42621;BME280;28252;53.336;-6.298;2023-02-14T01:42:22;101996.75;;;21.92;80.91
42621;BME280;28252;53.336;-6.298;2023-02-14T01:42:55;102001.31;;;21.92;81.72
42621;BME280;28252;53.336;-6.298;2023-02-14T01:43:46;101998.75;;;21.90;80.96
42621;BME280;28252;53.336;-6.298;2023-02-14T01:45:29;101997.91;;;21.90;80.70
42621;BME280;28252;53.336;-6.298;2023-02-14T01:46:01;101997.03;;;21.89;80.38
42621;BME280;28252;53.336;-6.298;2023-02-14T01:46:35;101994.31;;;21.89;80.71
42621;BME280;28252;53.336;-6.298;2023-02-14T01:47:14;101999.88;;;21.88;81.41
42621;BME280;28252;53.336;-6.298;2023-02-14T01:47:49;102000.75;;;21.88;80.53
42621;BME280;28252;53.336;-6.298;2023-02-14T01:48:23;101996.47;;;21.86;82.11
42621;BME280;28252;53.336;-6.298;2023-02-14T01:48:58;101995.50;;;21.87;81.09
42621;BME280;28252;53.336;-6.298;2023-02-14T01:50:22;101986.66;;;21.85;81.28
42621;BME280;28252;53.336;-6.298;2023-02-14T01:51:02;101983.94;;;21.85;81.28
42621;BME280;28252;53.336;-6.298;2023-02-14T01:51:42;101987.66;;;21.83;82.17
42621;BME280;28252;53.336;-6.298;2023-02-14T01:52:15;101985.09;;;21.82;81.83
42621;BME280;28252;53.336;-6.298;2023-02-14T01:52:50;101976.09;;;21.81;81.87
42621;BME280;28252;53.336;-6.298;2023-02-14T01:53:27;101982.50;;;21.80;82.15
42621;BME280;28252;53.336;-6.298;2023-02-14T01:54:01;101983.53;;;21.79;81.91
42621;BME280;28252;53.336;-6.298;2023-02-14T01:54:37;101981.53;;;21.81;81.74
42621;BME280;28252;53.336;-6.298;2023-02-14T01:55:16;101983.34;;;21.81;81.45
42621;BME280;28252;53.336;-6.298;2023-02-14T01:55:55;101988.78;;;21.81;81.01
42621;BME280;28252;53.336;-6.298;2023-02-14T01:56:37;101982.50;;;21.80;81.06
42621;BME280;28252;53.336;-6.298;2023-02-14T01:57:17;101985.22;;;21.80;81.06
42621;BME280;28252;53.336;-6.298;2023-02-14T01:58:26;101981.66;;;21.80;81.53
42621;BME280;28252;53.336;-6.298;2023-02-14T02:00:28;101982.66;;;21.79;81.27
42621;BME280;28252;53.336;-6.298;2023-02-14T02:01:23;101972.97;;;21.76;81.57
42621;BME280;28252;53.336;-6.298;2023-02-14T02:01:54;101970.28;;;21.76;81.86
42621;BME280;28252;53.336;-6.298;2023-02-14T02:02:27;101981.13;;;21.76;81.74
42621;BME280;28252;53.336;-6.298;2023-02-14T02:03:03;101976.69;;;21.75;81.86
42621;BME280;28252;53.336;-6.298;2023-02-14T02:03:37;101973.13;;;21.75;81.65
42621;BME280;28252;53.336;-6.298;2023-02-14T02:04:15;101971.41;;;21.74;81.99
42621;BME280;28252;53.336;-6.298;2023-02-14T02:04:47;101971.41;;;21.74;82.50
42621;BME280;28252;53.336;-6.298;2023-02-14T02:05:24;101968.84;;;21.72;82.24
42621;BME280;28252;53.336;-6.298;2023-02-14T02:05:57;101976.97;;;21.72;81.67
42621;BME280;28252;53.336;-6.298;2023-02-14T02:06:34;101973.44;;;21.72;82.19
42621;BME280;28252;53.336;-6.298;2023-02-14T02:07:11;101970.72;;;21.72;81.95
42621;BME280;28252;53.336;-6.298;2023-02-14T02:07:51;101967.16;;;21.71;82.15
42621;BME280;28252;53.336;-6.298;2023-02-14T02:08:27;101971.69;;;21.71;81.94
42621;BME280;28252;53.336;-6.298;2023-02-14T02:09:09;101970.84;;;21.70;82.36
42621;BME280;28252;53.336;-6.298;2023-02-14T02:10:08;101972.72;;;21.70;82.21
42621;BME280;28252;53.336;-6.298;2023-02-14T02:10:38;101967.44;;;21.68;82.47
42621;BME280;28252;53.336;-6.298;2023-02-14T02:11:13;101964.75;;;21.68;82.33
42621;BME280;28252;53.336;-6.298;2023-02-14T02:11:48;101971.16;;;21.67;82.69
42621;BME280;28252;53.336;-6.298;2023-02-14T02:12:22;101976.56;;;21.67;82.26
42621;BME280;28252;53.336;-6.298;2023-02-14T02:12:56;101976.56;;;21.67;82.11
42621;BME280;28252;53.336;-6.298;2023-02-14T02:13:36;101966.75;;;21.66;82.42
42621;BME280;28252;53.336;-6.298;2023-02-14T02:14:16;101973.16;;;21.65;81.88
42621;BME280;28252;53.336;-6.298;2023-02-14T02:14:53;101974.00;;;21.66;82.16
42621;BME280;28252;53.336;-6.298;2023-02-14T02:15:29;101966.91;;;21.64;82.07
42621;BME280;28252;53.336;-6.298;2023-02-14T02:16:32;101972.31;;;21.64;81.81
42621;BME280;28252;53.336;-6.298;2023-02-14T02:18:30;101979.59;;;21.64;82.13
42621;BME280;28252;53.336;-6.298;2023-02-14T02:20:21;101966.34;;;21.61;81.89
42621;BME280;28252;53.336;-6.298;2023-02-14T02:22:22;101964.63;;;21.60;81.67
42621;BME280;28252;53.336;-6.298;2023-02-14T02:29:15;101959.78;;;21.54;82.14
42621;BME280;28252;53.336;-6.298;2023-02-14T02:33:05;101959.22;;;21.50;82.64
42621;BME280;28252;53.336;-6.298;2023-02-14T02:36:24;101950.41;;;21.48;82.38
42621;BME280;28252;53.336;-6.298;2023-02-14T02:40:19;101954.38;;;21.44;82.58
42621;BME280;28252;53.336;-6.298;2023-02-14T02:45:19;101949.25;;;21.41;82.52
42621;BME280;28252;53.336;-6.298;2023-02-14T02:46:04;101941.28;;;21.39;83.36
42621;BME280;28252;53.336;-6.298;2023-02-14T02:47:01;101944.13;;;21.38;83.39
42621;BME280;28252;53.336;-6.298;2023-02-14T02:47:45;101943.28;;;21.37;82.77
42621;BME280;28252;53.336;-6.298;2023-02-14T02:48:22;101942.44;;;21.37;82.74
42621;BME280;28252;53.336;-6.298;2023-02-14T02:49:02;101940.56;;;21.37;82.46
42621;BME280;28252;53.336;-6.298;2023-02-14T02:50:40;101946.13;;;21.36;82.51
42621;BME280;28252;53.336;-6.298;2023-02-14T02:51:39;101939.00;;;21.35;82.84
42621;BME280;28252;53.336;-6.298;2023-02-14T02:54:13;101941.84;;;21.33;83.47
42621;BME280;28252;53.336;-6.298;2023-02-14T02:54:51;101941.00;;;21.33;83.21
42621;BME280;28252;53.336;-6.298;2023-02-14T02:56:34;101947.59;;;21.30;83.51
42621;BME280;28252;53.336;-6.298;2023-02-14T02:57:24;101935.03;;;21.29;83.40
42621;BME280;28252;53.336;-6.298;2023-02-14T02:57:59;101936.75;;;21.30;83.42
42621;BME280;28252;53.336;-6.298;2023-02-14T02:58:39;101948.56;;;21.29;83.22
42621;BME280;28252;53.336;-6.298;2023-02-14T02:59:59;101947.88;;;21.27;83.27
42621;BME280;28252;53.336;-6.298;2023-02-14T03:00:37;101951.28;;;21.29;83.15
42621;BME280;28252;53.336;-6.298;2023-02-14T03:01:12;101947.88;;;21.27;83.87
42621;BME280;28252;53.336;-6.298;2023-02-14T03:01:54;101945.31;;;21.25;84.24
42621;BME280;28252;53.336;-6.298;2023-02-14T03:02:38;101948.88;;;21.26;83.48
42621;BME280;28252;53.336;-6.298;2023-02-14T03:03:30;101942.59;;;21.25;83.59
42621;BME280;28252;53.336;-6.298;2023-02-14T03:04:23;101947.19;;;21.25;82.87
42621;BME280;28252;53.336;-6.298;2023-02-14T03:05:21;101940.03;;;21.24;83.26
42621;BME280;28252;53.336;-6.298;2023-02-14T03:05:57;101945.44;;;21.24;83.14
42621;BME280;28252;53.336;-6.298;2023-02-14T03:06:31;101941.03;;;21.23;83.02
42621;BME280;28252;53.336;-6.298;2023-02-14T03:07:05;101941.03;;;21.23;82.86
42621;BME280;28252;53.336;-6.298;2023-02-14T03:08:01;101946.44;;;21.23;82.65
42621;BME280;28252;53.336;-6.298;2023-02-14T03:09:53;101949.28;;;21.21;83.09
42621;BME280;28252;53.336;-6.298;2023-02-14T03:10:30;101958.44;;;21.20;83.13
42621;BME280;28252;53.336;-6.298;2023-02-14T03:11:08;101944.06;;;21.20;83.54
42621;BME280;28252;53.336;-6.298;2023-02-14T03:11:45;101940.47;;;21.19;83.05
42621;BME280;28252;53.336;-6.298;2023-02-14T03:14:49;101944.34;;;21.17;83.64
42621;BME280;28252;53.336;-6.298;2023-02-14T03:16:24;101950.75;;;21.16;83.61
42621;BME280;28252;53.336;-6.298;2023-02-14T03:17:05;101951.59;;;21.16;83.65
42621;BME280;28252;53.336;-6.298;2023-02-14T03:19:20;101941.06;;;21.13;84.09
42621;BME280;28252;53.336;-6.298;2023-02-14T03:20:59;101947.47;;;21.12;83.84
42621;BME280;28252;53.336;-6.298;2023-02-14T03:21:41;101943.94;;;21.12;83.31
42621;BME280;28252;53.336;-6.298;2023-02-14T03:24:35;101942.22;;;21.11;83.95
42621;BME280;28252;53.336;-6.298;2023-02-14T03:24:49;101940.50;;;21.10;84.16
42621;BME280;28252;53.336;-6.298;2023-02-14T03:25:34;101937.81;;;21.10;83.63
42621;BME280;28252;53.336;-6.298;2023-02-14T03:26:32;101938.78;;;21.08;84.09
42621;BME280;28252;53.336;-6.298;2023-02-14T03:27:27;101938.78;;;21.08;83.82
42621;BME280;28252;53.336;-6.298;2023-02-14T03:28:37;101936.22;;;21.07;84.17
42621;BME280;28252;53.336;-6.298;2023-02-14T03:29:22;101937.06;;;21.07;84.15
42621;BME280;28252;53.336;-6.298;2023-02-14T03:30:07;101933.66;;;21.05;84.32
42621;BME280;28252;53.336;-6.298;2023-02-14T03:30:57;101935.38;;;21.06;83.54
42621;BME280;28252;53.336;-6.298;2023-02-14T03:33:06;101933.66;;;21.05;84.21
42621;BME280;28252;53.336;-6.298;2023-02-14T03:33:47;101928.25;;;21.05;84.40
42621;BME280;28252;53.336;-6.298;2023-02-14T03:34:23;101924.84;;;21.03;84.06
42621;BME280;28252;53.336;-6.298;2023-02-14T03:35:16;101914.00;;;21.03;83.98
42621;BME280;28252;53.336;-6.298;2023-02-14T03:36:26;101922.13;;;21.03;84.53
42621;BME280;28252;53.336;-6.298;2023-02-14T03:37:54;101907.88;;;21.01;83.65
42621;BME280;28252;53.336;-6.298;2023-02-14T03:39:09;101908.88;;;21.00;84.04
42621;BME280;28252;53.336;-6.298;2023-02-14T03:40:36;101907.16;;;20.99;84.06
42621;BME280;28252;53.336;-6.298;2023-02-14T03:41:21;101900.88;;;20.99;84.02
42621;BME280;28252;53.336;-6.298;2023-02-14T03:41:57;101894.63;;;20.98;84.23
42621;BME280;28252;53.336;-6.298;2023-02-14T03:42:35;101900.03;;;20.98;84.15
42621;BME280;28252;53.336;-6.298;2023-02-14T03:43:11;101903.75;;;20.97;84.06
42621;BME280;28252;53.336;-6.298;2023-02-14T03:43:50;101902.75;;;20.98;84.25
42621;BME280;28252;53.336;-6.298;2023-02-14T03:44:27;101897.47;;;20.97;84.91
42621;BME280;28252;53.336;-6.298;2023-02-14T03:45:07;101905.75;;;20.95;84.86
42621;BME280;28252;53.336;-6.298;2023-02-14T03:45:42;101903.19;;;20.94;84.44
42621;BME280;28252;53.336;-6.298;2023-02-14T03:47:08;101900.31;;;20.95;84.47
42621;BME280;28252;53.336;-6.298;2023-02-14T03:47:43;101894.22;;;20.93;84.51
42621;BME280;28252;53.336;-6.298;2023-02-14T03:48:22;101887.78;;;20.94;84.66
42621;BME280;28252;53.336;-6.298;2023-02-14T03:49:00;101899.63;;;20.93;84.84
42621;BME280;28252;53.336;-6.298;2023-02-14T03:49:39;101891.66;;;20.92;84.53
42621;BME280;28252;53.336;-6.298;2023-02-14T03:50:15;101898.78;;;20.93;84.65
42621;BME280;28252;53.336;-6.298;2023-02-14T03:50:49;101897.91;;;20.92;84.18
42621;BME280;28252;53.336;-6.298;2023-02-14T03:51:23;101891.50;;;20.93;84.51
42621;BME280;28252;53.336;-6.298;2023-02-14T03:51:58;101889.78;;;20.92;84.30
42621;BME280;28252;53.336;-6.298;2023-02-14T03:52:33;101895.19;;;20.92;84.32
42621;BME280;28252;53.336;-6.298;2023-02-14T03:53:09;101895.19;;;20.92;84.63
42621;BME280;28252;53.336;-6.298;2023-02-14T03:53:44;101888.94;;;20.92;84.84
42621;BME280;28252;53.336;-6.298;2023-02-14T03:54:22;101888.09;;;20.91;84.81
42621;BME280;28252;53.336;-6.298;2023-02-14T03:54:57;101892.50;;;20.92;84.24
42621;BME280;28252;53.336;-6.298;2023-02-14T03:55:33;101892.63;;;20.90;84.93
42621;BME280;28252;53.336;-6.298;2023-02-14T03:56:42;101893.50;;;20.91;84.79
42621;BME280;28252;53.336;-6.298;2023-02-14T03:58:02;101897.19;;;20.90;84.78
42621;BME280;28252;53.336;-6.298;2023-02-14T03:58:36;101902.63;;;20.90;85.71
42621;BME280;28252;53.336;-6.298;2023-02-14T03:59:16;101900.91;;;20.89;84.53
42621;BME280;28252;53.336;-6.298;2023-02-14T03:59:50;101900.06;;;20.88;85.15
42621;BME280;28252;53.336;-6.298;2023-02-14T04:00:24;101892.06;;;20.87;85.21
42621;BME280;28252;53.336;-6.298;2023-02-14T04:00:59;101896.66;;;20.86;84.89
42621;BME280;28252;53.336;-6.298;2023-02-14T04:01:34;101896.66;;;20.86;84.89
42621;BME280;28252;53.336;-6.298;2023-02-14T04:02:07;101895.81;;;20.86;85.40
42621;BME280;28252;53.336;-6.298;2023-02-14T04:02:43;101889.38;;;20.87;85.52
42621;BME280;28252;53.336;-6.298;2023-02-14T04:03:18;101895.81;;;20.86;85.43
42621;BME280;28252;53.336;-6.298;2023-02-14T04:04:00;101893.94;;;20.86;85.49
42621;BME280;28252;53.336;-6.298;2023-02-14T04:04:35;101895.81;;;20.86;85.39
42621;BME280;28252;53.336;-6.298;2023-02-14T04:05:14;101889.50;;;20.85;85.20
42621;BME280;28252;53.336;-6.298;2023-02-14T04:05:49;101891.38;;;20.85;85.77
42621;BME280;28252;53.336;-6.298;2023-02-14T04:06:24;101891.38;;;20.85;85.62
42621;BME280;28252;53.336;-6.298;2023-02-14T04:07:12;101896.78;;;20.85;85.28